Time;durP1;ratioP1;P1;durP2;ratioP2;P2;SDS_P1;SDS_P2;PMS_P1;PMS_P2;Temp;Humidity;BMP_temperature;BMP_pressure;BME280_temperature;BME280_humidity;BME280_pressure;Samples;Min_cycle;Max_cycle;Signal;HPM_P1;HPM_P2
2023/01/11 00:00:00;;;;;;;0.30;0.28;;;;;;;11.35;100.00;100579.56;10453259;28;20056;-80
2023/01/11 00:05:11;;;;;;;0.10;0.10;;;;;;;11.45;100.00;100570.28;10442288;28;20111;-79
2023/01/11 00:10:13;;;;;;;0.00;0.00;;;;;;;11.10;100.00;100555.91;10415637;28;20049;-78
2023/01/11 00:15:15;;;;;;;0.10;0.00;;;;;;;10.94;100.00;100561.63;10428507;28;20042;-79
2023/01/11 00:20:18;;;;;;;0.20;0.10;;;;;;;11.22;100.00;100552.69;10416485;28;20045;-79
2023/01/11 00:25:19;;;;;;;0.28;0.28;;;;;;;11.01;100.00;100548.00;10415264;28;20046;-78
2023/01/11 00:31:00;;;;;;;0.10;0.10;;;;;;;11.05;100.00;100559.25;10415366;28;20048;-79
2023/01/11 00:36:02;;;;;;;0.10;0.10;;;;;;;11.51;100.00;100556.59;10414679;28;20060;-80
2023/01/11 00:51:44;;;;;;;0.10;0.10;;;;;;;11.39;100.00;100529.75;10403757;28;20048;-79
2023/01/11 00:56:45;;;;;;;0.00;0.00;;;;;;;11.72;100.00;100538.00;10414469;28;20048;-79
2023/01/11 01:01:47;;;;;;;0.00;0.00;;;;;;;11.72;100.00;100523.41;10397762;28;20057;-77
2023/01/11 01:06:49;;;;;;;0.43;0.17;;;;;;;11.55;100.00;100519.69;10428108;28;20045;-78
2023/01/11 01:11:50;;;;;;;0.00;0.00;;;;;;;11.72;100.00;100502.75;10447450;28;20049;-77
2023/01/11 01:17:01;;;;;;;0.00;0.00;;;;;;;11.55;100.00;100517.09;10400670;28;20457;-82
2023/01/11 01:22:02;;;;;;;0.00;0.00;;;;;;;11.20;100.00;100512.25;10423186;28;20053;-82
2023/01/11 01:27:04;;;;;;;0.13;0.05;;;;;;;11.36;100.00;100523.69;10414960;28;20046;-81
2023/01/11 01:32:05;;;;;;;0.00;0.00;;;;;;;11.13;100.00;100511.25;10409202;28;20045;-82
2023/01/11 01:37:08;;;;;;;0.65;0.17;;;;;;;11.29;100.00;100506.38;10396089;28;20049;-80
2023/01/11 01:42:15;;;;;;;0.50;0.20;;;;;;;11.50;100.00;100506.72;10418071;28;20050;-81
2023/01/11 01:47:18;;;;;;;0.10;0.10;;;;;;;11.10;100.00;100486.31;10412709;28;20500;-80
2023/01/11 01:52:27;;;;;;;1.85;0.10;;;;;;;11.13;100.00;100488.06;10414335;28;20045;-82
2023/01/11 01:57:33;;;;;;;0.17;0.00;;;;;;;11.18;100.00;100483.84;10442455;28;20133;-81
2023/01/11 02:02:36;;;;;;;0.03;0.03;;;;;;;11.27;100.00;100489.16;10434668;28;20081;-82
2023/01/11 02:07:42;;;;;;;0.20;0.10;;;;;;;11.31;100.00;100495.22;10454278;28;20048;-82
2023/01/11 02:13:03;;;;;;;0.15;0.13;;;;;;;11.26;100.00;100504.63;10407111;28;20453;-81
2023/01/11 02:18:10;;;;;;;0.10;0.10;;;;;;;11.36;100.00;100506.47;10433186;28;20145;-81
2023/01/11 02:23:51;;;;;;;3.00;0.32;;;;;;;11.17;100.00;100558.59;10408440;28;20076;-81
2023/01/11 02:29:01;;;;;;;0.20;0.08;;;;;;;11.49;100.00;100649.44;10411729;28;20061;-81
2023/01/11 02:34:20;;;;;;;0.30;0.20;;;;;;;11.53;100.00;100645.19;10417931;28;20519;-80
2023/01/11 02:39:34;;;;;;;0.10;0.10;;;;;;;11.39;100.00;100638.09;10408851;28;20515;-80
2023/01/11 02:45:01;;;;;;;0.20;0.20;;;;;;;12.11;100.00;100654.78;10404504;28;20405;-80
2023/01/11 02:50:31;;;;;;;0.05;0.03;;;;;;;11.37;100.00;100621.72;10397074;28;20053;-80
2023/01/11 02:55:39;;;;;;;0.00;0.00;;;;;;;11.63;100.00;100639.38;10407903;28;20041;-80
2023/01/11 03:00:45;;;;;;;0.00;0.00;;;;;;;11.30;100.00;100650.81;10393393;28;20060;-80
2023/01/11 03:05:59;;;;;;;0.00;0.00;;;;;;;11.54;100.00;100667.59;10401046;28;20045;-81
2023/01/11 03:11:11;;;;;;;0.90;0.30;;;;;;;11.52;100.00;100661.53;10436484;28;20045;-81
2023/01/11 03:16:37;;;;;;;0.10;0.10;;;;;;;11.81;100.00;100674.06;10385542;28;20531;-79
2023/01/11 03:22:08;;;;;;;0.10;0.03;;;;;;;11.68;100.00;100670.44;10403187;28;20076;-80
2023/01/11 03:27:38;;;;;;;0.00;0.00;;;;;;;11.71;100.00;100681.66;10418317;28;20124;-80
2023/01/11 03:32:46;;;;;;;0.35;0.20;;;;;;;11.59;100.00;100686.59;10418725;28;20100;-80
2023/01/11 03:38:00;;;;;;;0.00;0.00;;;;;;;11.64;100.00;100690.16;10412015;28;20038;-80
2023/01/11 03:48:56;;;;;;;0.00;0.00;;;;;;;11.99;100.00;100754.47;10415470;28;20083;-80
2023/01/11 03:54:00;;;;;;;0.20;0.05;;;;;;;12.06;100.00;100774.38;10417037;28;20045;-81
2023/01/11 03:59:05;;;;;;;0.00;0.00;;;;;;;11.88;100.00;100798.13;10405194;28;20053;-80
2023/01/11 04:04:06;;;;;;;0.10;0.00;;;;;;;11.97;100.00;100818.09;10415751;28;20049;-80
2023/01/11 04:09:08;;;;;;;0.00;0.00;;;;;;;12.00;100.00;100823.34;10406652;28;20777;-80
2023/01/11 04:14:10;;;;;;;0.00;0.00;;;;;;;11.78;100.00;100823.72;10398645;28;20041;-81
2023/01/11 04:19:11;;;;;;;0.00;0.00;;;;;;;12.01;100.00;100848.31;10401396;28;20507;-81
2023/01/11 04:24:13;;;;;;;0.00;0.00;;;;;;;12.09;100.00;100848.44;10395924;28;20132;-80
2023/01/11 04:29:14;;;;;;;0.00;0.00;;;;;;;12.07;100.00;100850.13;10433313;28;20029;-79
2023/01/11 04:34:15;;;;;;;0.52;0.10;;;;;;;12.26;100.00;100856.50;10410631;28;20052;-79
2023/01/11 04:39:17;;;;;;;0.47;0.22;;;;;;;12.05;100.00;100844.94;10427341;28;20042;-80
2023/01/11 04:44:19;;;;;;;0.22;0.15;;;;;;;12.20;100.00;100871.88;10421569;28;20045;-80
2023/01/11 04:49:21;;;;;;;0.22;0.10;;;;;;;12.25;100.00;100874.56;10430390;28;20128;-85
2023/01/11 04:54:22;;;;;;;0.00;0.00;;;;;;;12.13;100.00;100875.19;10445401;28;20404;-86
2023/01/11 04:59:24;;;;;;;0.00;0.00;;;;;;;12.31;100.00;100903.97;10440470;28;20046;-84
2023/01/11 05:04:25;;;;;;;0.00;0.00;;;;;;;12.50;100.00;100901.72;10425384;28;20576;-85
2023/01/11 05:09:27;;;;;;;0.00;0.00;;;;;;;12.28;100.00;100895.31;10440558;28;20087;-87
2023/01/11 05:14:28;;;;;;;0.00;0.00;;;;;;;12.21;100.00;100971.78;10428976;28;20103;-86
2023/01/11 05:19:30;;;;;;;0.10;0.10;;;;;;;12.19;100.00;101022.53;10434016;28;20044;-87
2023/01/11 05:24:32;;;;;;;0.00;0.00;;;;;;;12.40;100.00;101047.09;10423526;28;20069;-85
2023/01/11 05:29:35;;;;;;;0.00;0.00;;;;;;;12.27;100.00;101106.22;10425453;28;20041;-81
2023/01/11 05:34:37;;;;;;;0.00;0.00;;;;;;;12.14;100.00;101107.66;10413487;28;20532;-80
2023/01/11 05:39:39;;;;;;;0.00;0.00;;;;;;;12.40;100.00;101132.34;10417544;28;20684;-80
2023/01/11 05:50:00;;;;;;;0.00;0.00;;;;;;;12.68;100.00;101102.78;10407176;28;20120;-80
2023/01/11 05:55:02;;;;;;;0.03;0.03;;;;;;;12.52;100.00;101075.75;10416687;28;20425;-80
2023/01/11 06:00:04;;;;;;;0.10;0.10;;;;;;;12.78;100.00;101057.31;10416047;28;20067;-80
2023/01/11 06:05:07;;;;;;;0.00;0.00;;;;;;;13.01;100.00;101040.50;10414960;28;20049;-80
2023/01/11 06:10:09;;;;;;;0.00;0.00;;;;;;;12.78;100.00;101003.91;10420072;28;20051;-79
2023/01/11 06:15:11;;;;;;;0.00;0.00;;;;;;;12.76;100.00;101002.13;10423781;28;20045;-79
2023/01/11 06:20:12;;;;;;;0.05;0.05;;;;;;;12.96;100.00;101002.47;10446366;28;20465;-79
2023/01/11 06:25:16;;;;;;;0.10;0.10;;;;;;;12.98;100.00;100973.22;10442111;28;20049;-79
2023/01/11 06:30:19;;;;;;;0.00;0.00;;;;;;;12.91;100.00;100962.75;10420373;28;20046;-79
2023/01/11 06:35:20;;;;;;;0.08;0.03;;;;;;;13.02;100.00;100928.44;10417574;28;20041;-79
2023/01/11 06:40:22;;;;;;;0.55;0.30;;;;;;;12.74;100.00;100913.34;10442197;28;20128;-80
2023/01/11 06:45:24;;;;;;;0.13;0.10;;;;;;;13.18;100.00;100939.06;10409810;28;20056;-80
2023/01/11 06:50:26;;;;;;;0.20;0.10;;;;;;;13.24;100.00;100915.00;10398111;28;20060;-80
2023/01/11 06:55:28;;;;;;;0.05;0.05;;;;;;;12.87;100.00;100904.94;10411201;28;20046;-80
2023/01/11 07:00:30;;;;;;;0.75;0.60;;;;;;;12.96;100.00;100918.00;10414551;28;20091;-79
2023/01/11 07:05:33;;;;;;;0.10;0.10;;;;;;;12.66;100.00;100903.72;10413202;28;20057;-80
2023/01/11 07:10:35;;;;;;;0.15;0.15;;;;;;;12.75;100.00;100902.16;10415574;28;20132;-80
2023/01/11 07:15:36;;;;;;;0.77;0.38;;;;;;;12.91;100.00;100929.13;10418960;28;20140;-80
2023/01/11 07:20:39;;;;;;;2.85;0.75;;;;;;;12.75;100.00;100931.44;10415297;28;20033;-80
2023/01/11 07:25:41;;;;;;;0.52;0.35;;;;;;;12.75;100.00;100933.16;10425904;28;20076;-80
2023/01/11 07:30:42;;;;;;;0.63;0.40;;;;;;;12.60;100.00;100934.66;10414549;28;20049;-80
2023/01/11 07:36:04;;;;;;;1.08;0.90;;;;;;;12.72;100.00;100915.00;10414132;28;20041;-80
2023/01/11 07:43:10;;;;;;;1.13;0.40;;;;;;;12.53;100.00;100943.13;10414265;28;20048;-79
2023/01/11 07:46:27;;;;;;;1.13;0.60;;;;;;;12.44;100.00;100883.53;10413619;28;20091;-80
2023/01/11 07:51:29;;;;;;;0.73;0.73;;;;;;;12.36;100.00;100876.50;10412848;28;20502;-79
2023/01/11 07:56:30;;;;;;;0.45;0.40;;;;;;;12.30;100.00;100888.44;10412581;28;20477;-79
2023/01/11 08:01:32;;;;;;;2.65;1.75;;;;;;;12.24;100.00;100863.38;10422357;28;20041;-79
2023/01/11 08:06:34;;;;;;;0.57;0.55;;;;;;;12.29;100.00;100871.19;10404942;28;20106;-79
2023/01/11 08:16:57;;;;;;;8.25;0.22;;;;;;;12.28;100.00;100885.81;10412300;28;20503;-79
2023/01/11 08:21:58;;;;;;;0.60;0.30;;;;;;;12.25;100.00;100880.59;10411591;28;20045;-79
2023/01/11 08:27:03;;;;;;;1.35;0.88;;;;;;;12.15;100.00;100874.38;10432164;28;20046;-80
2023/01/11 08:32:05;;;;;;;1.98;0.15;;;;;;;12.19;100.00;100870.16;10411663;28;20085;-80
2023/01/11 08:37:07;;;;;;;0.00;0.00;;;;;;;12.17;100.00;100866.69;10411346;28;20063;-80
2023/01/11 08:42:20;;;;;;;0.00;0.00;;;;;;;12.20;100.00;100864.13;10427318;28;20049;-80
2023/01/11 08:47:22;;;;;;;0.65;0.22;;;;;;;12.21;100.00;100864.16;10416704;28;20080;-79
2023/01/11 08:52:23;;;;;;;3.00;0.95;;;;;;;12.13;100.00;100870.03;10420266;28;20111;-78
2023/01/11 08:57:25;;;;;;;0.35;0.30;;;;;;;12.30;100.00;100885.84;10418878;28;20531;-78
2023/01/11 09:02:27;;;;;;;0.10;0.10;;;;;;;12.09;100.00;100878.59;10432645;28;20410;-79
2023/01/11 09:07:28;;;;;;;1.05;0.82;;;;;;;11.97;100.00;100885.22;10405500;28;20049;-79
2023/01/11 09:12:31;;;;;;;0.20;0.10;;;;;;;12.02;100.00;100881.03;10408979;28;20073;-79
2023/01/11 09:17:33;;;;;;;0.00;0.00;;;;;;;12.14;100.00;100887.28;10410554;28;20077;-80
2023/01/11 09:22:35;;;;;;;0.00;0.00;;;;;;;12.04;100.00;100878.50;10409123;28;20132;-79
2023/01/11 09:27:41;;;;;;;2.40;0.65;;;;;;;12.16;100.00;100877.84;10415250;28;20045;-79
2023/01/11 09:32:44;;;;;;;0.10;0.10;;;;;;;12.05;100.00;100865.59;10421116;28;20531;-79
2023/01/11 09:37:51;;;;;;;0.00;0.00;;;;;;;11.94;100.00;100874.81;10418657;28;20068;-79
2023/01/11 09:42:56;;;;;;;0.00;0.00;;;;;;;11.66;100.00;100879.41;10417758;28;20476;-80
2023/01/11 09:48:27;;;;;;;0.75;0.57;;;;;;;11.66;100.00;100889.72;10428135;28;20038;-78
2023/01/11 09:53:35;;;;;;;0.00;0.00;;;;;;;11.97;100.00;100879.22;10428811;28;20065;-79
2023/01/11 09:58:58;;;;;;;0.68;0.45;;;;;;;11.73;100.00;100891.59;10423881;28;20495;-79
2023/01/11 10:04:21;;;;;;;0.98;0.45;;;;;;;11.69;100.00;100899.28;10418593;28;20500;-79
2023/01/11 10:09:32;;;;;;;0.70;0.52;;;;;;;11.55;100.00;100891.22;10430221;28;20045;-79
2023/01/11 10:15:08;;;;;;;0.00;0.00;;;;;;;11.55;100.00;100892.06;10428630;28;20580;-79
2023/01/11 10:20:38;;;;;;;0.20;0.20;;;;;;;11.63;100.00;100888.78;10429493;28;20048;-80
2023/01/11 10:25:50;;;;;;;0.30;0.22;;;;;;;11.74;100.00;100911.41;10427469;28;20096;-80
2023/01/11 10:36:24;;;;;;;0.05;0.00;;;;;;;11.38;100.00;100903.75;10418674;28;20065;-80
2023/01/11 10:42:06;;;;;;;0.80;0.55;;;;;;;11.63;100.00;100905.16;10412775;28;20405;-80
2023/01/11 10:47:23;;;;;;;0.05;0.00;;;;;;;11.58;100.00;100906.75;10416473;28;20049;-80
2023/01/11 10:52:39;;;;;;;0.30;0.10;;;;;;;12.06;100.00;100915.56;10433801;28;20124;-80
2023/01/11 10:58:12;;;;;;;0.05;0.05;;;;;;;12.12;100.00;100919.94;10439022;28;20045;-80
2023/01/11 11:03:26;;;;;;;0.00;0.00;;;;;;;12.40;100.00;100920.50;10414908;28;20099;-80
2023/01/11 11:08:51;;;;;;;3.75;0.95;;;;;;;12.48;100.00;100918.88;10415037;28;20444;-80
2023/01/11 11:14:03;;;;;;;0.08;0.00;;;;;;;12.63;100.00;100923.47;10427995;28;20041;-80
2023/01/11 11:19:11;;;;;;;0.38;0.38;;;;;;;12.56;100.00;100927.66;10434851;28;20056;-80
2023/01/11 11:24:26;;;;;;;3.50;1.10;;;;;;;12.26;100.00;100936.56;10401745;28;20413;-80
2023/01/11 11:29:29;;;;;;;0.40;0.40;;;;;;;11.97;100.00;100942.03;10415643;28;20045;-80
2023/01/11 11:34:31;;;;;;;0.43;0.20;;;;;;;11.95;100.00;100950.56;10414848;28;20048;-80
2023/01/11 11:39:33;;;;;;;0.17;0.17;;;;;;;12.06;100.00;100957.72;10397733;28;20076;-80
2023/01/11 11:44:35;;;;;;;3.35;0.50;;;;;;;12.13;100.00;100957.84;10419491;28;20045;-80
2023/01/11 11:49:38;;;;;;;2.35;1.00;;;;;;;12.13;100.00;100957.84;10414525;28;20057;-80
2023/01/11 11:54:55;;;;;;;0.22;0.22;;;;;;;13.12;100.00;100949.31;10408849;28;20067;-80
2023/01/11 12:00:06;;;;;;;0.17;0.03;;;;;;;12.67;100.00;100957.16;10397794;28;20033;-80
2023/01/11 12:05:09;;;;;;;6.30;0.88;;;;;;;12.67;100.00;100954.59;10396333;28;20092;-81
2023/01/11 12:10:15;;;;;;;0.60;0.10;;;;;;;13.13;100.00;100961.41;10378948;28;20084;-80
2023/01/11 12:15:29;;;;;;;0.00;0.00;;;;;;;12.01;100.00;100980.00;10392065;28;20057;-80
2023/01/11 12:20:37;;;;;;;0.00;0.00;;;;;;;12.37;100.00;100968.66;10390286;28;20057;-80
2023/01/11 12:26:18;;;;;;;1.20;0.35;;;;;;;12.18;100.00;100975.19;10409531;28;20091;-80
2023/01/11 12:31:51;;;;;;;2.53;0.43;;;;;;;11.91;100.00;100980.59;10423280;28;20068;-81
2023/01/11 12:37:04;;;;;;;0.63;0.52;;;;;;;12.91;100.00;100975.66;10393917;28;20701;-80
2023/01/11 12:42:41;;;;;;;0.00;0.00;;;;;;;13.16;100.00;100961.44;10412425;28;20073;-80
2023/01/11 12:48:11;;;;;;;5.57;0.70;;;;;;;12.43;100.00;100977.38;10408698;28;20466;-80
2023/01/11 12:53:47;;;;;;;1.02;0.10;;;;;;;11.96;100.00;100960.06;10413142;28;20084;-88
2023/01/11 12:59:16;;;;;;;0.00;0.00;;;;;;;11.72;100.00;100956.97;10408189;28;20042;-87
2023/01/11 13:04:40;;;;;;;0.10;0.10;;;;;;;11.83;100.00;100957.22;10410651;28;20061;-85
2023/01/11 13:09:59;;;;;;;1.88;0.35;;;;;;;11.97;100.00;100957.53;10408429;28;20544;-85
2023/01/11 13:15:19;;;;;;;1.70;0.47;;;;;;;11.78;100.00;100958.81;10410113;28;20512;-85
2023/01/11 13:20:23;;;;;;;0.00;0.00;;;;;;;11.95;100.00;100964.31;10409274;28;20508;-85
2023/01/11 13:25:30;;;;;;;0.03;0.03;;;;;;;12.28;100.00;100973.66;10413477;28;20068;-85
2023/01/11 13:30:33;;;;;;;0.00;0.00;;;;;;;11.56;100.00;100985.84;10411679;28;20069;-87
2023/01/11 13:35:53;;;;;;;0.00;0.00;;;;;;;11.75;100.00;100993.16;10411730;28;20451;-87
2023/01/11 13:41:00;;;;;;;14.43;0.38;;;;;;;12.07;100.00;101002.47;10413910;28;20456;-83
2023/01/11 13:46:17;;;;;;;0.82;0.25;;;;;;;12.29;100.00;100996.06;10406234;28;20115;-84
2023/01/11 13:51:27;;;;;;;0.70;0.38;;;;;;;12.16;100.00;101007.00;10457298;28;20045;-86
2023/01/11 13:56:33;;;;;;;0.80;0.20;;;;;;;12.01;100.00;101011.00;10418241;28;20072;-85
2023/01/11 14:01:56;;;;;;;0.32;0.20;;;;;;;12.25;100.00;101004.56;10406562;28;20125;-86
2023/01/11 14:07:15;;;;;;;0.30;0.30;;;;;;;11.77;100.00;101005.25;10423847;28;20588;-85
2023/01/11 14:12:44;;;;;;;1.40;0.30;;;;;;;11.28;100.00;100995.53;10421516;28;20448;-88
2023/01/11 14:18:24;;;;;;;7.20;0.65;;;;;;;11.31;100.00;101008.47;10404837;28;20062;-86
2023/01/11 14:23:37;;;;;;;1.27;1.17;;;;;;;11.45;100.00;101008.81;10432356;28;20045;-86
2023/01/11 14:28:38;;;;;;;0.00;0.00;;;;;;;11.86;100.00;101005.47;10419113;28;20092;-88
2023/01/11 14:34:03;;;;;;;0.90;0.38;;;;;;;11.69;100.00;100987.00;10427853;28;20078;-87
2023/01/11 14:39:16;;;;;;;1.02;0.25;;;;;;;11.35;100.00;100987.09;10419097;28;20074;-88
2023/01/11 14:44:54;;;;;;;0.40;0.40;;;;;;;11.61;100.00;100994.56;10425957;28;20052;-88
2023/01/11 14:50:13;;;;;;;0.00;0.00;;;;;;;11.57;100.00;100997.94;10404472;28;20408;-87
2023/01/11 14:55:22;;;;;;;0.15;0.15;;;;;;;11.67;100.00;100992.13;10420872;28;20054;-87
2023/01/11 15:00:24;;;;;;;0.00;0.00;;;;;;;11.47;100.00;100985.63;10401939;28;20048;-85
2023/01/11 15:05:29;;;;;;;0.00;0.00;;;;;;;11.44;100.00;101001.91;10405379;28;20137;-87
2023/01/11 15:10:33;;;;;;;0.98;0.65;;;;;;;11.23;100.00;101002.25;10429122;28;20041;-87
2023/01/11 15:21:01;;;;;;;0.95;0.55;;;;;;;11.01;100.00;100991.41;10417916;28;20080;-87
2023/01/11 15:26:08;;;;;;;0.08;0.08;;;;;;;11.02;100.00;100992.28;10442002;28;20049;-87
2023/01/11 15:31:47;;;;;;;0.10;0.10;;;;;;;11.03;100.00;100983.69;10424131;28;20035;-87
2023/01/11 15:37:05;;;;;;;0.00;0.00;;;;;;;10.85;100.00;100989.25;10415055;28;20053;-86
2023/01/11 15:42:15;;;;;;;1.08;0.55;;;;;;;10.81;100.00;100992.59;10404331;28;20069;-86
2023/01/11 15:47:35;;;;;;;1.35;0.22;;;;;;;10.90;100.00;100998.00;10415424;28;20056;-86
2023/01/11 15:53:05;;;;;;;0.27;0.20;;;;;;;11.11;100.00;101014.03;10427757;28;20049;-87
2023/01/11 15:58:34;;;;;;;0.00;0.00;;;;;;;10.74;100.00;101015.63;10413538;28;20350;-87
2023/01/11 16:04:14;;;;;;;4.35;0.73;;;;;;;10.47;100.00;101016.59;10414897;28;20042;-88
2023/01/11 16:09:28;;;;;;;0.00;0.00;;;;;;;10.58;100.00;101016.03;10397867;28;20164;-87
2023/01/11 16:15:07;;;;;;;0.40;0.20;;;;;;;10.32;100.00;101017.03;10403076;28;20045;-88
2023/01/11 16:20:27;;;;;;;0.00;0.00;;;;;;;10.40;100.00;101012.09;10426174;28;20404;-87
2023/01/11 16:25:33;;;;;;;23.65;1.40;;;;;;;10.43;100.00;101017.38;10449259;28;20044;-87
2023/01/11 16:30:34;;;;;;;0.30;0.30;;;;;;;10.47;100.00;101021.75;10441473;28;20088;-88
2023/01/11 16:35:36;;;;;;;0.20;0.20;;;;;;;10.31;100.00;101019.56;10413935;28;20054;-88
2023/01/11 16:40:41;;;;;;;0.20;0.20;;;;;;;10.67;100.00;101030.88;10411469;28;20046;-88
2023/01/11 16:45:46;;;;;;;0.10;0.10;;;;;;;10.70;100.00;101031.81;10400840;28;20120;-88
2023/01/11 16:50:59;;;;;;;0.00;0.00;;;;;;;10.81;100.00;101034.69;10414999;28;20247;-88
2023/01/11 16:56:18;;;;;;;0.43;0.40;;;;;;;10.70;100.00;101042.13;10411951;28;20049;-88
2023/01/11 17:01:20;;;;;;;0.20;0.10;;;;;;;10.34;100.00;101037.66;10404482;28;20485;-87
2023/01/11 17:06:23;;;;;;;1.35;0.55;;;;;;;10.66;100.00;101024.84;10411335;28;20155;-87
2023/01/11 17:11:37;;;;;;;0.47;0.30;;;;;;;10.27;100.00;101028.00;10413968;28;20038;-88
2023/01/11 17:16:46;;;;;;;3.63;1.00;;;;;;;10.24;100.00;101022.78;10409703;28;20067;-87
2023/01/11 17:21:55;;;;;;;0.20;0.10;;;;;;;10.47;100.00;101023.47;10407031;28;20042;-88
2023/01/11 17:27:00;;;;;;;0.90;0.50;;;;;;;10.63;100.00;101029.91;10409000;28;20083;-88
2023/01/11 17:32:06;;;;;;;0.32;0.25;;;;;;;10.55;100.00;101021.09;10409146;28;20042;-88
2023/01/11 17:37:13;;;;;;;2.50;0.43;;;;;;;10.50;100.00;101025.25;10420469;28;20046;-88
2023/01/11 17:47:38;;;;;;;3.22;0.70;;;;;;;10.57;100.00;101027.16;10424540;28;20041;-86
2023/01/11 17:52:40;;;;;;;2.40;0.65;;;;;;;10.55;100.00;101011.69;10418048;28;20142;-88
2023/01/11 17:58:16;;;;;;;0.00;0.00;;;;;;;10.42;100.00;101005.31;10399705;28;20038;-81
2023/01/11 18:03:20;;;;;;;0.13;0.10;;;;;;;10.48;100.00;101008.06;10417284;28;20065;-81
2023/01/11 18:08:22;;;;;;;0.08;0.08;;;;;;;10.75;100.00;101022.53;10416497;28;20515;-81
2023/01/11 18:13:32;;;;;;;0.20;0.20;;;;;;;10.73;100.00;101016.47;10414192;28;20041;-81
2023/01/11 18:18:46;;;;;;;3.03;0.88;;;;;;;10.60;100.00;101027.28;10417231;28;20452;-81
2023/01/11 18:23:47;;;;;;;0.70;0.32;;;;;;;10.60;100.00;101024.69;10415391;28;20103;-81
2023/01/11 18:28:49;;;;;;;0.25;0.25;;;;;;;10.50;100.00;101018.38;10419686;28;20124;-81
2023/01/11 18:33:51;;;;;;;1.00;0.38;;;;;;;10.54;100.00;101002.19;10416992;28;20080;-81
2023/01/11 18:38:53;;;;;;;0.20;0.20;;;;;;;10.38;100.00;101002.59;10415658;28;20111;-79
2023/01/11 18:43:54;;;;;;;0.08;0.08;;;;;;;10.46;100.00;100967.63;10419761;28;20452;-79
2023/01/11 18:48:58;;;;;;;0.52;0.52;;;;;;;10.31;100.00;100960.34;10413123;28;20037;-79
2023/01/11 18:54:00;;;;;;;0.05;0.03;;;;;;;10.40;100.00;100949.44;10423755;28;20049;-81
2023/01/11 18:59:02;;;;;;;0.47;0.10;;;;;;;10.41;100.00;100938.31;10404350;28;20069;-80
2023/01/11 19:04:04;;;;;;;0.00;0.00;;;;;;;10.45;100.00;100933.28;10380244;28;20084;-80
2023/01/11 19:09:05;;;;;;;0.15;0.00;;;;;;;10.51;100.00;100934.28;10379094;28;20100;-80
2023/01/11 19:14:09;;;;;;;0.00;0.00;;;;;;;10.58;100.00;100913.84;10405358;28;20115;-79
2023/01/11 19:19:10;;;;;;;0.45;0.45;;;;;;;10.59;100.00;100914.75;10414204;28;20042;-79
2023/01/11 19:24:12;;;;;;;2.33;0.50;;;;;;;10.44;100.00;100900.63;10417650;28;20237;-79
2023/01/11 19:29:16;;;;;;;0.00;0.00;;;;;;;10.49;100.00;100908.47;10410396;28;20120;-79
2023/01/11 19:34:18;;;;;;;0.38;0.10;;;;;;;10.21;100.00;100896.53;10413864;28;20041;-81
2023/01/11 19:39:20;;;;;;;1.25;0.20;;;;;;;10.05;100.00;100901.25;10414125;28;20112;-80
2023/01/11 19:44:24;;;;;;;0.80;0.35;;;;;;;10.15;100.00;100892.97;10418120;28;20079;-80
2023/01/11 19:49:26;;;;;;;0.00;0.00;;;;;;;9.81;100.00;100867.97;10409752;28;20164;-78
2023/01/11 19:54:27;;;;;;;1.13;0.20;;;;;;;9.96;100.00;100870.09;10413492;28;20033;-79
2023/01/11 19:59:29;;;;;;;0.38;0.35;;;;;;;9.61;100.00;100857.13;10410997;28;20041;-79
2023/01/11 20:04:31;;;;;;;0.00;0.00;;;;;;;9.70;100.00;100852.25;10420719;28;20447;-80
2023/01/11 20:09:36;;;;;;;0.00;0.00;;;;;;;9.62;100.00;100835.72;10414545;28;20452;-80
2023/01/11 20:14:39;;;;;;;0.00;0.00;;;;;;;9.88;100.00;100826.16;10399278;28;20049;-77
2023/01/11 20:19:42;;;;;;;0.08;0.08;;;;;;;9.34;100.00;100827.19;10429756;28;20120;-85
2023/01/11 20:24:43;;;;;;;1.38;0.47;;;;;;;9.95;100.00;100837.47;10414221;28;20084;-88
2023/01/11 20:29:46;;;;;;;0.10;0.10;;;;;;;9.77;100.00;100823.28;10412526;28;20076;-88
2023/01/11 20:34:48;;;;;;;0.00;0.00;;;;;;;9.16;100.00;100841.22;10411739;28;20061;-80
2023/01/11 20:39:49;;;;;;;1.10;0.43;;;;;;;9.08;100.00;100840.13;10411033;28;20045;-79
2023/01/11 20:44:51;;;;;;;0.10;0.10;;;;;;;9.19;100.00;102103.66;10413951;28;20106;-78
2023/01/11 20:49:53;;;;;;;0.40;0.40;;;;;;;9.04;100.00;102511.63;10394327;28;20046;-79
2023/01/11 20:54:57;;;;;;;0.08;0.08;;;;;;;9.33;100.00;102147.19;10445700;28;20068;-79
2023/01/11 20:59:58;;;;;;;0.90;0.85;;;;;;;9.13;100.00;101943.03;10418514;28;20516;-79
2023/01/11 21:05:03;;;;;;;0.13;0.13;;;;;;;9.10;100.00;101840.06;10415148;28;20111;-78
2023/01/11 21:10:05;;;;;;;0.20;0.20;;;;;;;9.10;100.00;101773.22;10422597;28;20459;-78
2023/01/11 21:15:09;;;;;;;0.60;0.57;;;;;;;9.08;100.00;101714.03;10430549;28;20075;-80
2023/01/11 21:20:11;;;;;;;0.00;0.00;;;;;;;9.26;100.00;101759.38;10422939;28;20133;-80
2023/01/11 21:25:13;;;;;;;0.00;0.00;;;;;;;9.38;100.00;101666.47;10412486;28;20038;-80
2023/01/11 21:30:16;;;;;;;0.10;0.08;;;;;;;9.21;100.00;101675.19;10427079;28;20041;-80
2023/01/11 21:35:17;;;;;;;0.22;0.17;;;;;;;9.11;100.00;101657.63;10433287;28;20073;-80
2023/01/11 21:40:19;;;;;;;1.38;0.82;;;;;;;9.25;100.00;101691.63;10432992;28;20045;-80
2023/01/11 21:45:22;;;;;;;0.00;0.00;;;;;;;9.41;100.00;101718.91;10443783;28;20109;-80
2023/01/11 21:50:23;;;;;;;0.28;0.28;;;;;;;9.18;100.00;101669.94;10446245;28;20049;-79
2023/01/11 21:55:25;;;;;;;0.00;0.00;;;;;;;9.36;100.00;101657.00;10459763;28;20061;-80
2023/01/11 22:00:26;;;;;;;0.10;0.10;;;;;;;9.45;100.00;101647.91;10443892;28;20055;-81
2023/01/11 22:05:30;;;;;;;0.60;0.38;;;;;;;9.61;100.00;101618.56;10445366;28;20087;-80
2023/01/11 22:10:32;;;;;;;1.65;0.68;;;;;;;9.49;100.00;101596.63;10445105;28;20076;-80
2023/01/11 22:15:36;;;;;;;0.00;0.00;;;;;;;9.69;100.00;101570.88;10434033;28;20106;-80
2023/01/11 22:20:39;;;;;;;0.60;0.30;;;;;;;9.67;100.00;101521.03;10421625;28;20120;-80
2023/01/11 22:25:41;;;;;;;0.10;0.10;;;;;;;9.75;100.00;101472.47;10412630;28;20042;-80
2023/01/11 22:30:42;;;;;;;1.67;1.58;;;;;;;9.53;100.00;101426.19;10432647;28;20042;-80
2023/01/11 22:35:53;;;;;;;0.75;0.55;;;;;;;9.66;100.00;101406.06;10445329;28;20045;-86
2023/01/11 22:40:58;;;;;;;10.20;0.30;;;;;;;9.68;100.00;101368.41;10427345;28;20041;-85
2023/01/11 22:46:00;;;;;;;0.30;0.15;;;;;;;9.69;100.00;101367.59;10429344;28;20084;-86
2023/01/11 22:51:05;;;;;;;0.08;0.08;;;;;;;9.78;100.00;101328.47;10437222;28;20404;-86
2023/01/11 22:56:08;;;;;;;0.00;0.00;;;;;;;9.72;100.00;101297.38;10454879;28;20048;-86
2023/01/11 23:01:15;;;;;;;0.10;0.10;;;;;;;9.93;100.00;101256.06;10434252;28;20072;-86
2023/01/11 23:06:19;;;;;;;0.00;0.00;;;;;;;10.08;100.00;101206.78;10450582;28;20056;-86
2023/01/11 23:16:47;;;;;;;1.25;0.30;;;;;;;10.03;100.00;101134.56;10422618;28;20559;-86
2023/01/11 23:21:48;;;;;;;0.00;0.00;;;;;;;10.09;100.00;101113.28;10428776;28;20052;-84
2023/01/11 23:26:50;;;;;;;0.30;0.30;;;;;;;10.12;100.00;101100.53;10447108;28;20048;-84
2023/01/11 23:31:52;;;;;;;0.10;0.10;;;;;;;9.99;100.00;101070.97;10421823;28;20072;-85
2023/01/11 23:36:54;;;;;;;0.00;0.00;;;;;;;10.07;100.00;101043.75;10419077;28;20428;-85
2023/01/11 23:42:27;;;;;;;0.17;0.17;;;;;;;9.79;100.00;101073.75;10417255;28;20051;-88
2023/01/11 23:47:30;;;;;;;0.00;0.00;;;;;;;9.76;100.00;101114.84;10426076;28;20492;-85
2023/01/11 23:52:31;;;;;;;0.00;0.00;;;;;;;9.69;100.00;101123.19;10439838;28;20041;-87
2023/01/11 23:57:33;;;;;;;0.08;0.08;;;;;;;9.75;100.00;101140.53;10416284;28;20065;-85
